createdAt,value
2019-03-26T00:02:01.340Z,6.52
2019-03-26T00:04:36.081Z,6.49
2019-03-26T00:07:12.484Z,6.45
2019-03-26T00:09:48.098Z,6.47
2019-03-26T00:12:25.519Z,6.43
2019-03-26T00:15:00.677Z,6.38
2019-03-26T00:17:37.717Z,6.44
2019-03-26T00:20:12.841Z,6.41
2019-03-26T00:22:47.495Z,6.39
2019-03-26T00:25:22.791Z,6.39
2019-03-26T00:27:58.110Z,6.36
2019-03-26T00:30:33.244Z,6.39
2019-03-26T00:33:07.911Z,6.38
2019-03-26T00:35:43.145Z,6.42
2019-03-26T00:38:19.432Z,6.44
2019-03-26T00:40:54.334Z,6.45
2019-03-26T00:43:29.547Z,6.40
2019-03-26T00:46:04.616Z,6.43
2019-03-26T00:48:39.298Z,6.40
2019-03-26T00:51:15.757Z,6.37
2019-03-26T00:53:50.642Z,6.34
2019-03-26T00:56:26.092Z,6.30
2019-03-26T00:59:02.990Z,6.27
2019-03-26T01:01:38.174Z,6.23
2019-03-26T01:04:16.386Z,6.21
2019-03-26T01:06:54.795Z,6.12
2019-03-26T01:09:29.533Z,6.08
2019-03-26T01:12:04.520Z,6.04
2019-03-26T01:14:39.920Z,6.05
2019-03-26T01:17:14.981Z,6.09
2019-03-26T01:19:50.083Z,6.10
2019-03-26T01:22:25.105Z,6.12
2019-03-26T01:24:59.612Z,6.16
2019-03-26T01:27:34.773Z,6.12
2019-03-26T01:30:09.956Z,6.07
2019-03-26T01:32:47.115Z,6.06
2019-03-26T01:35:23.477Z,6.04
2019-03-26T01:37:57.945Z,6.06
2019-03-26T01:40:32.561Z,6.05
2019-03-26T01:43:08.439Z,6.07
2019-03-26T01:45:42.966Z,6.05
2019-03-26T01:48:17.415Z,6.06
2019-03-26T01:50:52.846Z,6.04
2019-03-26T01:53:27.535Z,6.03
2019-03-26T01:56:02.118Z,6.04
2019-03-26T01:58:37.613Z,6.05
2019-03-26T02:01:12.690Z,6.06
2019-03-26T02:03:47.161Z,6.10
2019-03-26T02:06:23.082Z,6.08
2019-03-26T02:08:57.875Z,6.07
2019-03-26T02:11:33.982Z,6.05
2019-03-26T02:14:09.290Z,6.02
2019-03-26T02:16:44.129Z,5.98
2019-03-26T02:19:19.135Z,5.96
2019-03-26T02:21:54.603Z,5.94
2019-03-26T02:24:29.390Z,5.95
2019-03-26T02:27:03.984Z,5.95
2019-03-26T02:29:40.091Z,5.99
2019-03-26T02:32:14.932Z,5.98
2019-03-26T02:34:49.504Z,5.99
2019-03-26T02:37:24.589Z,5.99
2019-03-26T02:39:59.079Z,5.96
2019-03-26T02:42:34.020Z,5.97
2019-03-26T02:45:12.944Z,5.95
2019-03-26T02:47:49.148Z,5.91
2019-03-26T02:50:25.083Z,5.90
2019-03-26T02:53:03.350Z,5.89
2019-03-26T02:55:39.106Z,5.89
2019-03-26T02:58:14.314Z,5.88
2019-03-26T03:00:48.821Z,5.90
2019-03-26T03:03:24.372Z,5.91
2019-03-26T03:05:59.168Z,5.87
2019-03-26T03:08:33.965Z,5.85
2019-03-26T03:11:09.163Z,5.83
2019-03-26T03:13:43.796Z,5.84
2019-03-26T03:16:18.296Z,5.88
2019-03-26T03:18:54.550Z,5.93
2019-03-26T03:21:29.653Z,5.91
2019-03-26T03:24:05.093Z,5.91
2019-03-26T03:26:41.290Z,5.94
2019-03-26T03:29:16.333Z,5.95
2019-03-26T03:31:50.916Z,5.93
2019-03-26T03:34:25.611Z,5.89
2019-03-26T03:37:00.902Z,5.85
2019-03-26T03:39:35.479Z,5.84
2019-03-26T03:42:10.079Z,5.81
2019-03-26T03:44:46.116Z,5.84
2019-03-26T03:47:24.565Z,5.83
2019-03-26T03:50:00.664Z,5.83
2019-03-26T03:52:42.611Z,5.81
2019-03-26T03:55:18.094Z,5.79
2019-03-26T03:58:00.204Z,5.76
2019-03-26T04:00:40.720Z,5.73
2019-03-26T04:03:15.832Z,5.72
2019-03-26T04:05:50.335Z,5.69
2019-03-26T04:08:25.627Z,5.76
2019-03-26T04:11:00.641Z,5.73
2019-03-26T04:13:35.713Z,5.70
2019-03-26T04:16:10.623Z,5.70
2019-03-26T04:18:46.171Z,5.69
2019-03-26T04:21:21.505Z,5.70
2019-03-26T04:23:57.068Z,5.71
2019-03-26T04:26:32.046Z,5.69
2019-03-26T04:29:07.165Z,5.69
2019-03-26T04:31:42.691Z,5.68
2019-03-26T04:34:17.685Z,5.68
2019-03-26T04:36:52.321Z,5.69
2019-03-26T04:39:27.948Z,5.74
2019-03-26T04:42:02.622Z,5.81
2019-03-26T04:44:37.205Z,5.84
2019-03-26T04:47:12.181Z,5.80
2019-03-26T04:49:47.038Z,5.79
2019-03-26T04:52:21.772Z,5.80
2019-03-26T04:54:56.965Z,5.80
2019-03-26T04:57:31.531Z,5.77
2019-03-26T05:00:09.768Z,5.71
2019-03-26T05:02:46.005Z,5.68
2019-03-26T05:05:20.767Z,5.67
2019-03-26T05:07:55.749Z,5.67
2019-03-26T05:10:30.813Z,5.64
2019-03-26T05:13:05.643Z,5.63
2019-03-26T05:15:42.057Z,5.61
2019-03-26T05:18:17.140Z,5.59
2019-03-26T05:20:52.608Z,5.58
2019-03-26T05:23:27.273Z,5.58
2019-03-26T05:26:02.407Z,5.58
2019-03-26T05:28:37.291Z,5.58
2019-03-26T05:31:13.106Z,5.57
2019-03-26T05:33:48.603Z,5.57
2019-03-26T05:36:24.226Z,5.57
2019-03-26T05:38:58.943Z,5.59
2019-03-26T05:41:33.432Z,5.62
2019-03-26T05:44:08.661Z,5.65
2019-03-26T05:46:43.480Z,5.64
2019-03-26T05:49:20.317Z,5.66
2019-03-26T05:51:56.186Z,5.66
2019-03-26T05:54:31.230Z,5.69
2019-03-26T05:57:06.881Z,5.69
2019-03-26T05:59:43.000Z,5.72
2019-03-26T06:02:18.523Z,5.74
2019-03-26T06:04:54.143Z,5.74
2019-03-26T06:07:31.190Z,5.75
2019-03-26T06:10:08.532Z,5.73
2019-03-26T06:12:43.619Z,5.72
2019-03-26T06:15:21.733Z,5.71
2019-03-26T06:17:57.751Z,5.73
2019-03-26T06:20:32.327Z,5.75
2019-03-26T06:23:09.560Z,5.77
2019-03-26T06:25:44.744Z,5.80
2019-03-26T06:28:20.656Z,5.83
2019-03-26T06:30:56.051Z,5.84
2019-03-26T06:33:30.942Z,5.86
2019-03-26T06:36:06.058Z,5.89
2019-03-26T06:38:44.139Z,5.90
2019-03-26T06:41:18.862Z,5.93
2019-03-26T06:43:53.731Z,5.98
2019-03-26T06:46:28.926Z,6.03
2019-03-26T06:49:04.520Z,6.08
2019-03-26T06:51:39.940Z,6.18
2019-03-26T06:54:14.494Z,6.21
2019-03-26T06:56:49.362Z,6.23
2019-03-26T06:59:24.647Z,6.24
2019-03-26T07:02:00.560Z,6.24
2019-03-26T07:04:34.740Z,6.24
2019-03-26T07:07:11.031Z,6.22
2019-03-26T07:09:46.740Z,6.22
2019-03-26T07:12:25.237Z,6.25
2019-03-26T07:14:59.684Z,6.29
2019-03-26T07:17:37.935Z,6.32
2019-03-26T07:20:14.458Z,6.36
2019-03-26T07:22:49.203Z,6.40
2019-03-26T07:25:24.397Z,6.44
2019-03-26T07:27:59.026Z,6.48
2019-03-26T07:30:43.070Z,6.52
2019-03-26T07:33:17.706Z,6.55
2019-03-26T07:35:52.853Z,6.60
2019-03-26T07:38:30.933Z,6.66
2019-03-26T07:41:07.007Z,6.69
2019-03-26T07:43:44.358Z,6.72
2019-03-26T07:46:20.598Z,6.83
2019-03-26T07:49:12.425Z,6.92
2019-03-26T07:51:47.261Z,7.02
2019-03-26T07:54:23.095Z,7.11
2019-03-26T07:56:59.814Z,7.22
2019-03-26T07:59:37.473Z,7.31
2019-03-26T08:02:12.637Z,7.33
2019-03-26T08:04:47.426Z,7.27
2019-03-26T08:07:22.664Z,7.27
2019-03-26T08:10:08.516Z,7.37
2019-03-26T08:12:44.226Z,7.49
2019-03-26T08:15:20.359Z,7.49
2019-03-26T08:17:55.100Z,7.41
2019-03-26T08:20:30.094Z,7.31
2019-03-26T08:23:06.906Z,7.32
2019-03-26T08:25:43.153Z,7.32
2019-03-26T08:28:19.006Z,7.26
2019-03-26T08:30:53.491Z,7.25
2019-03-26T08:33:30.493Z,7.24
2019-03-26T08:36:09.434Z,7.19
2019-03-26T08:38:44.368Z,6.96
2019-03-26T08:41:19.611Z,6.84
2019-03-26T08:43:56.042Z,6.78
2019-03-26T08:46:33.276Z,6.73
2019-03-26T08:49:14.134Z,6.71
2019-03-26T08:51:49.367Z,6.63
2019-03-26T08:54:24.698Z,6.50
2019-03-26T08:57:07.573Z,6.43
2019-03-26T08:59:42.796Z,6.44
2019-03-26T09:02:19.136Z,6.51
2019-03-26T09:04:54.266Z,6.53
2019-03-26T09:07:30.209Z,6.63
2019-03-26T09:10:07.299Z,6.87
2019-03-26T09:12:43.955Z,7.14
2019-03-26T09:15:18.118Z,7.49
2019-03-26T09:17:52.878Z,7.83
2019-03-26T09:20:30.354Z,8.40
2019-03-26T09:23:07.556Z,9.15
2019-03-26T09:25:42.909Z,9.75
2019-03-26T09:28:17.487Z,10.02
2019-03-26T09:30:55.765Z,9.94
2019-03-26T09:33:31.470Z,9.97
2019-03-26T09:36:06.384Z,9.89
2019-03-26T09:38:43.535Z,9.88
2019-03-26T09:41:18.569Z,9.43
2019-03-26T09:43:53.672Z,9.14
2019-03-26T09:46:29.936Z,8.88
2019-03-26T09:49:04.578Z,8.59
2019-03-26T09:51:40.214Z,8.46
2019-03-26T09:54:14.890Z,8.27
2019-03-26T09:56:49.835Z,8.14
2019-03-26T09:59:24.836Z,8.14
2019-03-26T10:02:00.349Z,8.19
2019-03-26T10:04:45.105Z,8.41
2019-03-26T10:07:21.871Z,8.62
2019-03-26T10:09:56.719Z,8.73
2019-03-26T10:12:31.805Z,8.70
2019-03-26T10:15:08.919Z,8.52
2019-03-26T10:17:43.935Z,8.34
2019-03-26T10:20:19.946Z,8.20
2019-03-26T10:22:54.850Z,8.12
2019-03-26T10:25:31.197Z,8.00
2019-03-26T10:28:07.866Z,7.94
2019-03-26T10:30:45.789Z,7.95
2019-03-26T10:33:23.685Z,7.96
2019-03-26T10:36:00.742Z,7.94
2019-03-26T10:38:37.205Z,7.81
2019-03-26T10:41:13.076Z,7.69
2019-03-26T10:43:49.428Z,7.58
2019-03-26T10:46:24.987Z,7.52
2019-03-26T10:49:00.098Z,7.45
2019-03-26T10:51:38.533Z,7.40
2019-03-26T10:54:21.033Z,7.32
2019-03-26T10:56:58.799Z,7.26
2019-03-26T10:59:35.316Z,7.22
2019-03-26T11:02:11.517Z,7.16
2019-03-26T11:04:46.629Z,7.10
2019-03-26T11:07:24.056Z,7.14
2019-03-26T11:10:04.446Z,7.24
2019-03-26T11:12:42.074Z,7.32
2019-03-26T11:15:21.250Z,7.45
2019-03-26T11:17:57.855Z,7.56
2019-03-26T11:20:35.054Z,7.73
2019-03-26T11:23:11.283Z,7.96
2019-03-26T11:25:46.500Z,8.14
2019-03-26T11:28:23.205Z,8.34
2019-03-26T11:30:59.922Z,8.62
2019-03-26T11:33:36.179Z,8.93
2019-03-26T11:36:12.419Z,9.20
2019-03-26T11:38:48.064Z,9.37
2019-03-26T11:41:24.430Z,9.58
2019-03-26T11:44:04.447Z,9.78
2019-03-26T11:46:42.086Z,9.95
2019-03-26T11:49:17.797Z,10.06
2019-03-26T11:51:53.254Z,10.27
2019-03-26T11:54:31.557Z,10.37
2019-03-26T11:57:08.075Z,10.37
2019-03-26T11:59:43.816Z,10.50
2019-03-26T12:02:20.805Z,10.52
2019-03-26T12:04:57.478Z,10.59
2019-03-26T12:07:33.255Z,10.58
2019-03-26T12:10:08.707Z,10.27
2019-03-26T12:12:48.975Z,10.16
2019-03-26T12:15:27.409Z,10.30
2019-03-26T12:18:03.097Z,10.62
2019-03-26T12:20:38.353Z,10.78
2019-03-26T12:23:14.486Z,10.77
2019-03-26T12:28:21.298Z,10.92
2019-03-26T12:30:56.709Z,10.86
2019-03-26T12:33:33.328Z,10.70
2019-03-26T12:36:10.369Z,10.43
2019-03-26T12:38:46.692Z,10.18
2019-03-26T12:41:21.944Z,9.91
2019-03-26T12:43:57.023Z,9.78
2019-03-26T12:46:33.748Z,9.62
2019-03-26T12:49:16.159Z,9.46
2019-03-26T12:51:50.804Z,9.39
2019-03-26T12:54:27.615Z,9.42
2019-03-26T12:57:03.818Z,9.46
2019-03-26T12:59:42.460Z,9.47
2019-03-26T13:02:22.722Z,9.41
2019-03-26T13:05:01.108Z,9.44
2019-03-26T13:07:42.120Z,9.47
2019-03-26T13:10:17.263Z,9.55
2019-03-26T13:12:55.288Z,9.70
2019-03-26T13:15:31.403Z,9.83
2019-03-26T13:18:06.802Z,9.93
2019-03-26T13:20:42.167Z,10.05
2019-03-26T13:23:17.876Z,10.15
2019-03-26T13:25:53.658Z,10.10
2019-03-26T13:28:31.596Z,10.14
2019-03-26T13:31:07.527Z,10.04
2019-03-26T13:33:48.018Z,9.83
2019-03-26T13:36:31.918Z,9.57
2019-03-26T13:39:10.460Z,9.45
2019-03-26T13:41:47.973Z,9.36
2019-03-26T13:44:22.653Z,9.25
2019-03-26T13:46:58.079Z,9.31
2019-03-26T13:49:33.557Z,9.36
2019-03-26T13:52:10.158Z,9.40
2019-03-26T13:54:47.979Z,9.48
2019-03-26T13:57:28.621Z,9.60
2019-03-26T14:00:10.549Z,9.67
2019-03-26T14:02:59.732Z,9.75
2019-03-26T14:05:35.898Z,9.77
2019-03-26T14:08:25.636Z,9.82
2019-03-26T14:11:04.034Z,9.84
2019-03-26T14:13:40.474Z,9.78
2019-03-26T14:16:15.092Z,9.70
2019-03-26T14:19:00.523Z,9.53
2019-03-26T14:21:36.513Z,9.54
2019-03-26T14:24:13.489Z,9.54
2019-03-26T14:26:52.472Z,9.58
2019-03-26T14:29:27.417Z,9.60
2019-03-26T14:32:02.458Z,9.48
2019-03-26T14:34:43.304Z,9.42
2019-03-26T14:37:21.210Z,9.36
2019-03-26T14:39:57.042Z,9.30
2019-03-26T14:42:33.310Z,9.24
2019-03-26T14:45:34.720Z,9.24
2019-03-26T14:48:09.948Z,9.17
2019-03-26T14:50:48.063Z,9.03
2019-03-26T14:53:23.823Z,8.93
2019-03-26T14:56:00.105Z,8.85
2019-03-26T14:58:34.979Z,8.75
2019-03-26T15:01:11.452Z,8.71
2019-03-26T15:03:47.291Z,8.61
2019-03-26T15:06:25.467Z,8.56
2019-03-26T15:09:02.027Z,8.55
2019-03-26T15:11:39.216Z,8.51
2019-03-26T15:14:14.558Z,8.49
2019-03-26T15:16:51.623Z,8.51
2019-03-26T15:19:28.481Z,8.48
2019-03-26T15:22:05.608Z,8.45
2019-03-26T15:24:42.817Z,8.50
2019-03-26T15:27:19.945Z,8.59
2019-03-26T15:30:02.859Z,8.60
2019-03-26T15:35:24.804Z,8.68
2019-03-26T15:38:01.176Z,8.73
2019-03-26T15:40:39.163Z,8.77
2019-03-26T15:43:16.904Z,8.81
2019-03-26T15:45:52.806Z,8.86
2019-03-26T15:48:36.135Z,8.95
2019-03-26T15:51:21.029Z,9.06
2019-03-26T15:53:58.489Z,9.10
2019-03-26T15:56:38.695Z,9.13
2019-03-26T15:59:18.497Z,9.09
2019-03-26T16:01:58.265Z,9.03
2019-03-26T16:04:34.607Z,8.98
2019-03-26T16:07:10.206Z,8.91
2019-03-26T16:09:45.192Z,8.86
2019-03-26T16:12:21.172Z,8.80
2019-03-26T16:14:58.050Z,8.73
2019-03-26T16:17:33.794Z,8.71
2019-03-26T16:20:09.804Z,8.71
2019-03-26T16:22:49.837Z,8.73
2019-03-26T16:25:29.125Z,8.76
2019-03-26T16:28:07.512Z,8.77
2019-03-26T16:30:44.104Z,8.76
2019-03-26T16:33:21.433Z,8.76
2019-03-26T16:35:56.559Z,8.75
2019-03-26T16:38:31.879Z,8.73
2019-03-26T16:41:10.159Z,8.74
2019-03-26T16:43:45.597Z,8.74
2019-03-26T16:46:23.955Z,8.76
2019-03-26T16:48:59.258Z,8.74
2019-03-26T16:51:34.962Z,8.74
2019-03-26T16:54:10.470Z,8.68
2019-03-26T16:56:48.118Z,8.63
2019-03-26T16:59:26.031Z,8.58
2019-03-26T17:02:01.546Z,8.55
2019-03-26T17:04:37.952Z,8.56
2019-03-26T17:07:13.997Z,8.53
2019-03-26T17:09:52.737Z,8.48
2019-03-26T17:12:34.360Z,8.43
2019-03-26T17:15:12.591Z,8.39
2019-03-26T17:17:48.905Z,8.35
2019-03-26T17:20:24.753Z,8.37
2019-03-26T17:23:03.093Z,8.33
2019-03-26T17:25:39.075Z,8.28
2019-03-26T17:28:15.510Z,8.24
2019-03-26T17:30:51.834Z,8.21
2019-03-26T17:33:29.075Z,8.18
2019-03-26T17:36:07.690Z,8.16
2019-03-26T17:38:44.784Z,8.13
2019-03-26T17:41:19.859Z,8.13
2019-03-26T17:43:56.051Z,8.17
2019-03-26T17:46:32.000Z,8.13
2019-03-26T17:49:08.945Z,8.09
2019-03-26T17:51:43.977Z,8.06
2019-03-26T17:54:20.182Z,8.04
2019-03-26T17:56:55.112Z,8.01
2019-03-26T17:59:31.055Z,8.04
2019-03-26T18:02:09.485Z,8.00
2019-03-26T18:05:10.212Z,7.96
2019-03-26T18:07:53.038Z,7.92
2019-03-26T18:10:32.457Z,7.90
2019-03-26T18:13:14.856Z,7.87
2019-03-26T18:15:55.043Z,7.85
2019-03-26T18:18:31.282Z,7.84
2019-03-26T18:21:07.697Z,7.83
2019-03-26T18:23:46.131Z,7.82
2019-03-26T18:26:25.384Z,7.80
2019-03-26T18:29:04.963Z,7.76
2019-03-26T18:31:42.423Z,7.74
2019-03-26T18:34:29.220Z,7.72
2019-03-26T18:37:04.862Z,7.71
2019-03-26T18:39:41.177Z,7.69
2019-03-26T18:42:22.717Z,7.69
2019-03-26T18:45:00.509Z,7.70
2019-03-26T18:47:38.650Z,7.71
2019-03-26T18:50:17.814Z,7.72
2019-03-26T18:52:55.698Z,7.73
2019-03-26T18:55:33.066Z,7.79
2019-03-26T18:58:09.760Z,7.79
2019-03-26T19:00:55.062Z,7.78
2019-03-26T19:03:34.908Z,7.78
2019-03-26T19:06:12.244Z,7.84
2019-03-26T19:08:49.961Z,8.09
2019-03-26T19:11:33.603Z,8.11
2019-03-26T19:14:21.054Z,8.03
2019-03-26T19:17:08.631Z,7.96
2019-03-26T19:19:44.932Z,7.89
2019-03-26T19:22:23.467Z,7.85
2019-03-26T19:25:02.462Z,7.81
2019-03-26T19:27:41.110Z,7.79
2019-03-26T19:30:20.031Z,7.78
2019-03-26T19:32:58.027Z,7.75
2019-03-26T19:35:35.525Z,7.72
2019-03-26T19:38:18.982Z,7.71
2019-03-26T19:40:55.504Z,7.69
2019-03-26T19:43:38.906Z,7.66
2019-03-26T19:46:20.400Z,7.65
2019-03-26T19:49:00.371Z,7.62
2019-03-26T19:51:42.410Z,7.58
2019-03-26T19:54:21.125Z,7.53
2019-03-26T19:56:58.393Z,7.47
2019-03-26T19:59:35.759Z,7.44
2019-03-26T20:02:11.593Z,7.40
2019-03-26T20:04:50.380Z,7.39
2019-03-26T20:07:29.560Z,7.36
2019-03-26T20:10:11.255Z,7.35
2019-03-26T20:12:48.961Z,7.34
2019-03-26T20:15:24.394Z,7.34
2019-03-26T20:18:04.493Z,7.32
2019-03-26T20:20:41.502Z,7.42
2019-03-26T20:23:16.767Z,7.50
2019-03-26T20:25:53.332Z,7.48
2019-03-26T20:28:33.139Z,7.46
2019-03-26T20:31:19.097Z,7.46
2019-03-26T20:33:58.364Z,7.46
2019-03-26T20:36:37.232Z,7.48
2019-03-26T20:39:15.929Z,7.47
2019-03-26T20:41:53.899Z,7.46
2019-03-26T20:44:35.022Z,7.45
2019-03-26T20:47:11.665Z,7.45
2019-03-26T20:49:51.099Z,7.44
2019-03-26T20:52:27.596Z,7.45
2019-03-26T20:55:07.516Z,7.46
2019-03-26T20:57:49.723Z,7.45
2019-03-26T21:00:41.242Z,7.49
2019-03-26T21:03:26.700Z,7.44
2019-03-26T21:06:14.682Z,7.39
2019-03-26T21:08:53.732Z,7.35
2019-03-26T21:11:35.128Z,7.36
2019-03-26T21:14:11.947Z,7.33
2019-03-26T21:16:48.219Z,7.32
2019-03-26T21:19:25.925Z,7.29
2019-03-26T21:22:04.466Z,7.29
2019-03-26T21:24:40.908Z,7.27
2019-03-26T21:27:19.205Z,7.33
2019-03-26T21:29:55.175Z,7.31
2019-03-26T21:32:33.380Z,7.34
2019-03-26T21:35:10.915Z,7.36
2019-03-26T21:37:47.167Z,7.35
2019-03-26T21:40:24.011Z,7.36
2019-03-26T21:42:59.566Z,7.34
2019-03-26T21:45:44.574Z,7.33
2019-03-26T21:48:20.614Z,7.33
2019-03-26T21:50:57.903Z,7.36
2019-03-26T21:53:36.973Z,7.39
2019-03-26T21:56:14.286Z,7.38
2019-03-26T21:58:49.968Z,7.36
2019-03-26T22:01:37.858Z,7.34
2019-03-26T22:04:19.916Z,7.33
2019-03-26T22:06:58.877Z,7.32
2019-03-26T22:09:37.509Z,7.32
2019-03-26T22:12:20.999Z,7.30
2019-03-26T22:14:58.575Z,7.28
2019-03-26T22:17:38.466Z,7.33
2019-03-26T22:20:15.706Z,7.31
2019-03-26T22:22:53.674Z,7.27
2019-03-26T22:25:30.928Z,7.22
2019-03-26T22:28:07.564Z,7.18
2019-03-26T22:31:07.797Z,7.15
2019-03-26T22:33:43.555Z,7.12
2019-03-26T22:36:19.416Z,7.15
2019-03-26T22:38:55.692Z,7.14
2019-03-26T22:41:34.715Z,7.11
2019-03-26T22:44:11.523Z,7.09
2019-03-26T22:46:47.835Z,7.10
2019-03-26T22:49:24.225Z,7.09
2019-03-26T22:52:01.710Z,7.13
2019-03-26T22:54:37.391Z,7.10
2019-03-26T22:57:12.676Z,7.07
2019-03-26T22:59:49.202Z,7.05
2019-03-26T23:02:24.523Z,6.99
2019-03-26T23:05:00.350Z,7.00
2019-03-26T23:07:35.993Z,6.93
2019-03-26T23:10:12.393Z,6.87
2019-03-26T23:12:48.469Z,6.80
2019-03-26T23:15:27.771Z,6.70
2019-03-26T23:18:05.697Z,6.56
2019-03-26T23:20:45.500Z,6.42
2019-03-26T23:23:22.639Z,6.27
2019-03-26T23:25:59.781Z,6.16
2019-03-26T23:28:35.449Z,6.15
2019-03-26T23:31:10.739Z,6.11
2019-03-26T23:33:46.572Z,5.95
2019-03-26T23:36:22.073Z,5.80
2019-03-26T23:38:59.687Z,5.67
2019-03-26T23:41:35.143Z,5.59
2019-03-26T23:44:10.440Z,5.52
2019-03-26T23:46:46.786Z,5.50
2019-03-26T23:49:23.317Z,5.37
2019-03-26T23:51:58.516Z,5.21
2019-03-26T23:54:35.030Z,5.09
2019-03-26T23:57:12.502Z,4.93
2019-03-26T23:59:47.706Z,4.86
